Time,TemperatureF,DewpointF,PressureIn,WindDirection,WindDirectionDegrees,WindSpeedMPH,WindSpeedGustMPH,Humidity,HourlyPrecipIn,Conditions,Clouds,dailyrainin,SoftwareType,DateUTC
2013-03-07 00:01:00,37.2,33.7,29.83,ENE,68,1.8,4.7,87,0.03,,,0.00,WUHU216HW,2013-03-07 08:01:00,
2013-03-07 00:06:00,37.0,33.5,29.83,South,180,2.7,4.7,87,0.04,,,0.01,WUHU216HW,2013-03-07 08:06:00,
2013-03-07 00:11:00,37.0,33.5,29.83,SE,135,2.5,2.9,87,0.05,,,0.02,WUHU216HW,2013-03-07 08:11:00,
2013-03-07 00:16:00,37.0,33.5,29.84,SE,135,2.9,4.0,87,0.05,,,0.02,WUHU216HW,2013-03-07 08:16:00,
2013-03-07 00:21:00,37.0,33.5,29.84,East,90,3.1,4.0,87,0.05,,,0.02,WUHU216HW,2013-03-07 08:21:00,
2013-03-07 00:26:00,37.0,33.5,29.84,ESE,113,2.5,3.1,87,0.06,,,0.03,WUHU216HW,2013-03-07 08:26:00,
2013-03-07 00:31:00,37.0,33.5,29.84,SE,135,1.1,4.3,87,0.05,,,0.03,WUHU216HW,2013-03-07 08:31:00,
2013-03-07 00:36:00,37.0,33.5,29.84,SE,135,3.4,4.3,87,0.06,,,0.04,WUHU216HW,2013-03-07 08:36:00,
2013-03-07 00:41:00,37.0,33.5,29.84,SSW,203,1.1,4.5,87,0.05,,,0.04,WUHU216HW,2013-03-07 08:41:00,
2013-03-07 00:46:00,37.0,33.5,29.84,East,90,1.3,4.5,87,0.06,,,0.06,WUHU216HW,2013-03-07 08:46:00,
2013-03-07 00:51:00,37.0,33.5,29.85,SE,135,0.7,2.5,87,0.07,,,0.06,WUHU216HW,2013-03-07 08:51:00,
2013-03-07 00:56:00,37.2,33.7,29.85,East,90,2.0,2.0,87,0.06,,,0.06,WUHU216HW,2013-03-07 08:56:00,
2013-03-07 01:01:00,37.2,33.7,29.85,SE,135,1.3,3.1,87,0.05,,,0.06,WUHU216HW,2013-03-07 09:01:00,
2013-03-07 01:06:00,37.2,33.7,29.85,SE,135,2.9,4.0,87,0.06,,,0.08,WUHU216HW,2013-03-07 09:06:00,
2013-03-07 01:12:00,37.2,33.7,29.85,SE,135,1.8,4.0,87,0.05,,,0.08,WUHU216HW,2013-03-07 09:12:00,
2013-03-07 01:17:00,37.2,33.7,29.85,ESE,113,0.0,2.5,87,0.06,,,0.08,WUHU216HW,2013-03-07 09:17:00,
2013-03-07 01:22:00,37.2,33.7,29.86,SSW,203,1.6,2.5,87,0.05,,,0.08,WUHU216HW,2013-03-07 09:22:00,
2013-03-07 01:27:00,37.4,33.9,29.86,SSE,158,2.7,2.7,87,0.05,,,0.08,WUHU216HW,2013-03-07 09:27:00,
2013-03-07 01:32:00,37.4,33.9,29.86,ESE,113,0.9,2.9,87,0.05,,,0.09,WUHU216HW,2013-03-07 09:32:00,
2013-03-07 01:37:00,37.4,33.9,29.86,SE,135,0.9,2.9,87,0.05,,,0.09,WUHU216HW,2013-03-07 09:37:00,
2013-03-07 01:42:00,37.4,33.9,29.86,East,90,2.0,2.5,87,0.04,,,0.09,WUHU216HW,2013-03-07 09:42:00,
2013-03-07 01:47:00,37.4,34.1,29.87,SE,135,0.4,2.9,88,0.05,,,0.11,WUHU216HW,2013-03-07 09:47:00,
2013-03-07 01:53:00,37.4,34.1,29.87,SSE,158,0.0,2.5,88,0.04,,,0.11,WUHU216HW,2013-03-07 09:53:00,
2013-03-07 01:58:00,37.4,34.1,29.87,SE,135,0.0,1.8,88,0.05,,,0.11,WUHU216HW,2013-03-07 09:58:00,
2013-03-07 02:03:00,37.6,34.3,29.87,SE,135,1.8,1.8,88,0.04,,,0.11,WUHU216HW,2013-03-07 10:03:00,
2013-03-07 02:08:00,37.6,34.3,29.87,ESE,113,2.0,2.0,88,0.05,,,0.13,WUHU216HW,2013-03-07 10:08:00,
2013-03-07 02:13:00,37.6,34.3,29.87,East,90,1.1,2.0,88,0.05,,,0.13,WUHU216HW,2013-03-07 10:13:00,
2013-03-07 02:18:00,37.6,34.3,29.87,East,90,1.1,2.0,88,0.05,,,0.13,WUHU216HW,2013-03-07 10:18:00,
2013-03-07 02:23:00,37.6,34.3,29.87,ESE,113,1.3,2.0,88,0.06,,,0.15,WUHU216HW,2013-03-07 10:23:00,
2013-03-07 02:29:00,37.6,34.3,29.87,East,90,1.6,1.8,88,0.07,,,0.15,WUHU216HW,2013-03-07 10:29:00,
2013-03-07 02:34:00,37.6,34.3,29.87,South,180,0.7,1.6,88,0.06,,,0.15,WUHU216HW,2013-03-07 10:34:00,
2013-03-07 02:39:00,37.6,34.3,29.87,ESE,113,1.8,1.8,88,0.07,,,0.17,WUHU216HW,2013-03-07 10:39:00,
2013-03-07 02:44:00,37.4,34.1,29.87,SE,135,1.1,3.4,88,0.06,,,0.17,WUHU216HW,2013-03-07 10:44:00,
2013-03-07 02:49:00,37.4,34.1,29.87,ESE,113,0.7,3.4,88,0.06,,,0.17,WUHU216HW,2013-03-07 10:49:00,
2013-03-07 02:54:00,37.4,34.1,29.88,ESE,113,2.7,3.4,88,0.06,,,0.18,WUHU216HW,2013-03-07 10:54:00,
2013-03-07 02:59:00,37.4,34.4,29.87,ESE,113,1.8,2.7,89,0.06,,,0.18,WUHU216HW,2013-03-07 10:59:00,
2013-03-07 03:04:00,37.2,34.2,29.87,ESE,113,2.7,2.7,89,0.05,,,0.18,WUHU216HW,2013-03-07 11:04:00,
2013-03-07 03:09:00,37.4,34.4,29.88,ENE,68,1.8,3.4,89,0.06,,,0.19,WUHU216HW,2013-03-07 11:09:00,
2013-03-07 03:14:00,37.4,34.4,29.88,East,90,1.6,3.4,89,0.05,,,0.19,WUHU216HW,2013-03-07 11:14:00,
2013-03-07 03:20:00,37.2,34.2,29.88,ESE,113,0.9,2.7,89,0.05,,,0.20,WUHU216HW,2013-03-07 11:20:00,
2013-03-07 03:25:00,37.2,34.2,29.88,ESE,113,0.7,2.9,89,0.05,,,0.20,WUHU216HW,2013-03-07 11:25:00,
2013-03-07 03:30:00,37.2,34.2,29.88,East,90,1.3,3.6,89,0.05,,,0.21,WUHU216HW,2013-03-07 11:30:00,
2013-03-07 03:35:00,37.2,34.2,29.88,SE,135,1.8,3.6,89,0.05,,,0.22,WUHU216HW,2013-03-07 11:35:00,
2013-03-07 03:40:00,37.2,34.2,29.88,ENE,68,1.8,2.5,89,0.05,,,0.22,WUHU216HW,2013-03-07 11:40:00,
2013-03-07 03:45:00,37.2,34.2,29.88,SE,135,2.5,3.1,89,0.06,,,0.22,WUHU216HW,2013-03-07 11:45:00,
2013-03-07 03:50:00,37.2,34.2,29.89,SE,135,1.8,3.1,89,0.06,,,0.22,WUHU216HW,2013-03-07 11:50:00,
2013-03-07 03:55:00,37.2,34.2,29.89,SE,135,2.5,2.9,89,0.06,,,0.24,WUHU216HW,2013-03-07 11:55:00,
2013-03-07 04:00:00,37.2,34.2,29.89,East,90,0.9,2.9,89,0.06,,,0.24,WUHU216HW,2013-03-07 12:00:00,
2013-03-07 04:05:00,37.2,34.2,29.89,ESE,113,1.8,3.1,89,0.06,,,0.25,WUHU216HW,2013-03-07 12:05:00,
2013-03-07 04:10:00,37.2,34.2,29.89,North,0,1.1,3.1,89,0.06,,,0.25,WUHU216HW,2013-03-07 12:10:00,
2013-03-07 04:15:00,37.2,34.2,29.89,East,90,2.9,3.1,89,0.05,,,0.25,WUHU216HW,2013-03-07 12:15:00,
2013-03-07 04:20:00,37.0,34.0,29.89,ENE,68,3.4,3.4,89,0.05,,,0.26,WUHU216HW,2013-03-07 12:20:00,
2013-03-07 04:25:00,37.0,34.0,29.90,ESE,113,2.2,3.4,89,0.05,,,0.26,WUHU216HW,2013-03-07 12:25:00,
2013-03-07 04:30:00,37.2,34.5,29.90,ESE,113,3.4,3.4,90,0.05,,,0.26,WUHU216HW,2013-03-07 12:30:00,
2013-03-07 04:35:00,37.2,34.5,29.90,SE,135,2.5,3.4,90,0.05,,,0.27,WUHU216HW,2013-03-07 12:35:00,
2013-03-07 04:40:00,37.4,34.7,29.90,SE,135,3.6,4.0,90,0.04,,,0.27,WUHU216HW,2013-03-07 12:40:00,
2013-03-07 04:45:00,37.2,34.2,29.90,SE,135,3.8,6.7,89,0.04,,,0.27,WUHU216HW,2013-03-07 12:45:00,
2013-03-07 04:50:00,37.4,34.7,29.90,ENE,68,2.5,6.7,90,0.03,,,0.27,WUHU216HW,2013-03-07 12:50:00,
2013-03-07 04:55:00,37.4,34.7,29.91,East,90,4.9,4.9,90,0.03,,,0.27,WUHU216HW,2013-03-07 12:55:00,
2013-03-07 05:00:00,37.2,34.2,29.91,SE,135,2.5,4.9,89,0.04,,,0.28,WUHU216HW,2013-03-07 13:00:00,
2013-03-07 05:05:00,37.0,34.0,29.91,SE,135,2.5,3.4,89,0.03,,,0.28,WUHU216HW,2013-03-07 13:05:00,
2013-03-07 05:10:00,37.0,34.0,29.91,ESE,113,2.0,4.5,89,0.03,,,0.28,WUHU216HW,2013-03-07 13:10:00,
2013-03-07 05:15:00,37.0,34.3,29.91,ESE,113,3.4,4.5,90,0.03,,,0.29,WUHU216HW,2013-03-07 13:15:00,
2013-03-07 05:21:00,37.0,34.0,29.91,ESE,113,3.8,3.8,89,0.03,,,0.29,WUHU216HW,2013-03-07 13:21:00,
2013-03-07 05:26:00,36.8,34.1,29.91,SE,135,2.5,4.3,90,0.03,,,0.29,WUHU216HW,2013-03-07 13:26:00,
2013-03-07 05:31:00,36.8,34.1,29.91,SE,135,2.9,4.3,90,0.03,,,0.30,WUHU216HW,2013-03-07 13:31:00,
2013-03-07 05:36:00,36.8,34.1,29.91,ESE,113,3.1,4.5,90,0.03,,,0.30,WUHU216HW,2013-03-07 13:36:00,
2013-03-07 05:41:00,36.8,34.1,29.92,SE,135,1.3,4.7,90,0.03,,,0.30,WUHU216HW,2013-03-07 13:41:00,
2013-03-07 05:46:00,37.0,34.3,29.91,ESE,113,1.3,4.7,90,0.03,,,0.30,WUHU216HW,2013-03-07 13:46:00,
2013-03-07 05:51:00,37.0,34.3,29.92,ESE,113,2.5,2.5,90,0.03,,,0.30,WUHU216HW,2013-03-07 13:51:00,
2013-03-07 05:56:00,37.0,34.3,29.92,SE,135,2.0,2.5,90,0.04,,,0.31,WUHU216HW,2013-03-07 13:56:00,
2013-03-07 06:01:00,37.0,34.3,29.92,SE,135,1.8,2.2,90,0.03,,,0.31,WUHU216HW,2013-03-07 14:01:00,
2013-03-07 06:06:00,37.0,34.3,29.92,ESE,113,1.6,2.9,90,0.03,,,0.31,WUHU216HW,2013-03-07 14:06:00,
2013-03-07 06:11:00,37.0,34.3,29.92,ESE,113,1.8,2.9,90,0.03,,,0.31,WUHU216HW,2013-03-07 14:11:00,
2013-03-07 06:16:00,37.0,34.3,29.92,SE,135,2.0,2.5,90,0.02,,,0.31,WUHU216HW,2013-03-07 14:16:00,
2013-03-07 06:21:00,37.0,34.3,29.93,East,90,1.1,2.5,90,0.03,,,0.31,WUHU216HW,2013-03-07 14:21:00,
2013-03-07 06:26:00,37.0,34.3,29.93,SE,135,1.6,2.5,90,0.02,,,0.32,WUHU216HW,2013-03-07 14:26:00,
2013-03-07 06:31:00,37.0,34.3,29.93,ESE,113,1.6,2.5,90,0.02,,,0.32,WUHU216HW,2013-03-07 14:31:00,
2013-03-07 06:36:00,37.0,34.3,29.93,ESE,113,2.2,2.5,90,0.02,,,0.32,WUHU216HW,2013-03-07 14:36:00,
2013-03-07 06:41:00,37.2,34.5,29.93,ESE,113,2.9,3.4,90,0.02,,,0.32,WUHU216HW,2013-03-07 14:41:00,
2013-03-07 06:46:00,37.2,34.5,29.93,SE,135,1.6,3.4,90,0.02,,,0.32,WUHU216HW,2013-03-07 14:46:00,
2013-03-07 06:51:00,37.2,34.5,29.93,ESE,113,3.4,3.4,90,0.02,,,0.32,WUHU216HW,2013-03-07 14:51:00,
2013-03-07 06:56:00,37.4,34.7,29.93,ESE,113,1.8,3.4,90,0.02,,,0.33,WUHU216HW,2013-03-07 14:56:00,
2013-03-07 07:01:00,37.6,34.9,29.93,SE,135,2.2,3.1,90,0.02,,,0.33,WUHU216HW,2013-03-07 15:01:00,
2013-03-07 07:06:00,37.7,35.0,29.94,ESE,113,3.8,3.8,90,0.02,,,0.33,WUHU216HW,2013-03-07 15:06:00,
2013-03-07 07:11:00,37.7,35.0,29.94,ESE,113,1.8,3.8,90,0.02,,,0.33,WUHU216HW,2013-03-07 15:11:00,
2013-03-07 07:16:00,37.7,35.0,29.94,ENE,68,2.7,3.4,90,0.02,,,0.33,WUHU216HW,2013-03-07 15:16:00,
2013-03-07 07:21:00,37.7,35.0,29.94,SE,135,2.0,3.4,90,0.02,,,0.33,WUHU216HW,2013-03-07 15:21:00,
2013-03-07 07:27:00,38.1,35.4,29.94,SE,135,1.6,3.4,90,0.02,,,0.34,WUHU216HW,2013-03-07 15:27:00,
2013-03-07 07:32:00,37.9,35.2,29.94,SE,135,1.3,2.9,90,0.02,,,0.34,WUHU216HW,2013-03-07 15:32:00,
2013-03-07 07:37:00,37.9,35.2,29.95,SE,135,2.0,3.1,90,0.03,,,0.35,WUHU216HW,2013-03-07 15:37:00,
2013-03-07 07:42:00,37.9,35.2,29.95,SE,135,1.6,3.4,90,0.03,,,0.35,WUHU216HW,2013-03-07 15:42:00,
2013-03-07 07:47:00,37.9,35.2,29.95,ESE,113,1.1,3.4,90,0.03,,,0.35,WUHU216HW,2013-03-07 15:47:00,
2013-03-07 07:52:00,37.9,35.2,29.95,ESE,113,2.5,3.1,90,0.02,,,0.35,WUHU216HW,2013-03-07 15:52:00,
2013-03-07 07:57:00,37.9,35.2,29.95,ESE,113,2.0,2.7,90,0.03,,,0.36,WUHU216HW,2013-03-07 15:57:00,
2013-03-07 08:02:00,37.9,35.2,29.95,SE,135,2.5,2.9,90,0.03,,,0.36,WUHU216HW,2013-03-07 16:02:00,
2013-03-07 08:07:00,37.9,35.2,29.95,ESE,113,1.6,2.9,90,0.03,,,0.36,WUHU216HW,2013-03-07 16:07:00,
2013-03-07 08:12:00,37.9,35.2,29.95,SE,135,1.8,3.4,90,0.03,,,0.36,WUHU216HW,2013-03-07 16:12:00,
2013-03-07 08:17:00,37.9,35.2,29.95,ESE,113,2.0,3.4,90,0.04,,,0.37,WUHU216HW,2013-03-07 16:17:00,
2013-03-07 08:22:00,37.9,35.2,29.96,SE,135,3.1,3.4,90,0.03,,,0.37,WUHU216HW,2013-03-07 16:22:00,
2013-03-07 08:27:00,37.9,35.2,29.96,SE,135,2.5,4.0,90,0.03,,,0.37,WUHU216HW,2013-03-07 16:27:00,
2013-03-07 08:32:00,37.9,35.2,29.96,East,90,1.8,4.0,90,0.02,,,0.37,WUHU216HW,2013-03-07 16:32:00,
2013-03-07 08:37:00,37.9,35.2,29.96,SE,135,2.0,3.1,90,0.02,,,0.37,WUHU216HW,2013-03-07 16:37:00,
2013-03-07 08:42:00,38.1,35.4,29.96,SE,135,2.2,2.9,90,0.03,,,0.38,WUHU216HW,2013-03-07 16:42:00,
2013-03-07 08:47:00,38.1,35.4,29.96,ESE,113,2.5,2.9,90,0.03,,,0.38,WUHU216HW,2013-03-07 16:47:00,
2013-03-07 08:52:00,38.1,35.4,29.96,ENE,68,2.0,3.1,90,0.02,,,0.38,WUHU216HW,2013-03-07 16:52:00,
2013-03-07 08:57:00,38.3,35.6,29.97,ESE,113,2.2,4.3,90,0.02,,,0.38,WUHU216HW,2013-03-07 16:57:00,
2013-03-07 09:02:00,38.3,35.6,29.97,SE,135,2.5,4.3,90,0.02,,,0.38,WUHU216HW,2013-03-07 17:02:00,
2013-03-07 09:07:00,38.3,35.9,29.97,SSE,158,1.8,3.6,91,0.02,,,0.38,WUHU216HW,2013-03-07 17:07:00,
2013-03-07 09:12:00,38.5,35.8,29.97,ESE,113,2.9,3.8,90,0.01,,,0.38,WUHU216HW,2013-03-07 17:12:00,
2013-03-07 09:17:00,38.5,36.1,29.97,ENE,68,3.4,3.8,91,0.01,,,0.38,WUHU216HW,2013-03-07 17:17:00,
2013-03-07 09:22:00,38.5,35.8,29.97,ENE,68,0.9,4.5,90,0.02,,,0.39,WUHU216HW,2013-03-07 17:22:00,
2013-03-07 09:27:00,38.5,36.1,29.97,ESE,113,1.8,4.5,91,0.02,,,0.39,WUHU216HW,2013-03-07 17:27:00,
2013-03-07 09:32:00,38.6,35.9,29.98,ESE,113,2.5,4.5,90,0.02,,,0.39,WUHU216HW,2013-03-07 17:32:00,
2013-03-07 09:37:00,38.8,36.1,29.98,East,90,1.1,4.5,90,0.01,,,0.39,WUHU216HW,2013-03-07 17:37:00,
2013-03-07 09:42:00,38.8,36.1,29.98,SSE,158,0.9,4.3,90,0.01,,,0.39,WUHU216HW,2013-03-07 17:42:00,
2013-03-07 09:47:00,39.0,36.5,29.98,ESE,113,1.8,3.4,91,0.01,,,0.39,WUHU216HW,2013-03-07 17:47:00,
2013-03-07 09:53:00,39.2,36.7,29.99,SSE,158,1.1,3.4,91,0.01,,,0.39,WUHU216HW,2013-03-07 17:53:00,
2013-03-07 09:58:00,39.4,36.9,29.99,ENE,68,3.4,3.4,91,0.01,,,0.39,WUHU216HW,2013-03-07 17:58:00,
2013-03-07 10:03:00,39.5,37.0,29.98,East,90,1.8,3.4,91,0.01,,,0.39,WUHU216HW,2013-03-07 18:03:00,
2013-03-07 10:08:00,39.7,37.2,29.99,ESE,113,2.5,2.9,91,0.01,,,0.39,WUHU216HW,2013-03-07 18:08:00,
2013-03-07 10:13:00,39.9,37.2,29.99,SE,135,0.2,3.4,90,0.01,,,0.39,WUHU216HW,2013-03-07 18:13:00,
2013-03-07 10:18:00,40.1,37.4,29.99,SSE,158,3.4,3.4,90,0.00,,,0.39,WUHU216HW,2013-03-07 18:18:00,
2013-03-07 10:23:00,40.3,37.6,30.00,ESE,113,3.1,3.4,90,0.00,,,0.39,WUHU216HW,2013-03-07 18:23:00,
2013-03-07 10:28:00,40.3,37.6,30.00,ESE,113,1.1,4.5,90,0.00,,,0.39,WUHU216HW,2013-03-07 18:28:00,
2013-03-07 10:33:00,40.4,37.7,30.00,SE,135,1.6,4.5,90,0.01,,,0.40,WUHU216HW,2013-03-07 18:33:00,
2013-03-07 10:38:00,40.6,37.9,30.00,SE,135,2.5,3.4,90,0.01,,,0.40,WUHU216HW,2013-03-07 18:38:00,
2013-03-07 10:44:00,40.6,37.9,30.00,ESE,113,3.4,4.0,90,0.01,,,0.40,WUHU216HW,2013-03-07 18:44:00,
2013-03-07 10:49:00,40.6,37.9,30.00,ESE,113,1.8,4.0,90,0.01,,,0.40,WUHU216HW,2013-03-07 18:49:00,
2013-03-07 10:54:00,40.8,37.8,30.00,ESE,113,2.2,3.6,89,0.01,,,0.40,WUHU216HW,2013-03-07 18:54:00,
2013-03-07 10:59:00,40.8,37.8,30.01,SSE,158,2.2,3.6,89,0.01,,,0.40,WUHU216HW,2013-03-07 18:59:00,
2013-03-07 11:04:00,41.0,38.0,30.01,SSE,158,0.4,3.6,89,0.01,,,0.40,WUHU216HW,2013-03-07 19:04:00,
2013-03-07 11:09:00,41.2,38.2,30.01,SE,135,1.1,4.0,89,0.02,,,0.41,WUHU216HW,2013-03-07 19:09:00,
2013-03-07 11:14:00,41.2,38.2,30.01,SE,135,1.8,4.0,89,0.02,,,0.41,WUHU216HW,2013-03-07 19:14:00,
2013-03-07 11:19:00,41.3,38.3,30.01,ESE,113,2.0,3.4,89,0.03,,,0.42,WUHU216HW,2013-03-07 19:19:00,
2013-03-07 11:24:00,41.3,38.3,30.01,SE,135,0.4,3.4,89,0.03,,,0.42,WUHU216HW,2013-03-07 19:24:00,
2013-03-07 11:29:00,41.3,38.3,30.01,SE,135,3.1,3.1,89,0.02,,,0.42,WUHU216HW,2013-03-07 19:29:00,
2013-03-07 11:34:00,41.5,38.5,30.01,SSE,158,2.2,3.1,89,0.02,,,0.42,WUHU216HW,2013-03-07 19:34:00,
2013-03-07 11:39:00,41.5,38.2,30.01,ESE,113,3.6,5.4,88,0.02,,,0.42,WUHU216HW,2013-03-07 19:39:00,
2013-03-07 11:44:00,41.5,38.2,30.01,South,180,2.5,5.4,88,0.02,,,0.42,WUHU216HW,2013-03-07 19:44:00,
2013-03-07 11:49:00,41.5,38.2,30.01,SE,135,2.2,3.6,88,0.03,,,0.43,WUHU216HW,2013-03-07 19:49:00,
2013-03-07 11:54:00,41.3,38.0,30.01,SSE,158,1.1,4.0,88,0.03,,,0.43,WUHU216HW,2013-03-07 19:54:00,
2013-03-07 11:59:00,41.3,38.0,30.01,SE,135,1.8,4.0,88,0.03,,,0.43,WUHU216HW,2013-03-07 19:59:00,
2013-03-07 12:04:00,41.3,38.0,30.01,SE,135,1.8,4.0,88,0.03,,,0.43,WUHU216HW,2013-03-07 20:04:00,
2013-03-07 12:09:00,41.3,38.0,30.01,SE,135,0.7,3.4,88,0.02,,,0.43,WUHU216HW,2013-03-07 20:09:00,
2013-03-07 12:14:00,41.3,38.0,30.01,SE,135,2.5,3.4,88,0.01,,,0.43,WUHU216HW,2013-03-07 20:14:00,
2013-03-07 12:19:00,41.3,38.0,30.01,SE,135,2.5,3.4,88,0.02,,,0.44,WUHU216HW,2013-03-07 20:19:00,
2013-03-07 12:24:00,41.3,38.0,30.01,SE,135,0.2,2.9,88,0.02,,,0.44,WUHU216HW,2013-03-07 20:24:00,
2013-03-07 12:29:00,41.3,38.0,30.01,SSE,158,0.9,2.9,88,0.02,,,0.44,WUHU216HW,2013-03-07 20:29:00,
2013-03-07 12:34:00,41.3,38.0,30.01,ESE,113,0.0,1.6,88,0.02,,,0.44,WUHU216HW,2013-03-07 20:34:00,
2013-03-07 12:36:00,41.3,38.0,30.01,SE,135,0.4,0.4,88,0.02,,,0.44,WUHU216HW,2013-03-07 20:36:00,
2013-03-07 12:39:00,41.3,38.0,30.01,SE,135,0.4,0.9,88,0.02,,,0.44,WUHU216HW,2013-03-07 20:39:00,
2013-03-07 12:44:00,41.3,38.0,30.01,SE,135,0.4,0.9,88,0.02,,,0.44,WUHU216HW,2013-03-07 20:44:00,
2013-03-07 13:00:00,41.5,38.2,30.01,SE,135,1.1,1.1,88,0.01,,,0.44,WUHU216HW,2013-03-07 21:00:00,
2013-03-07 13:05:00,41.5,38.2,30.01,SE,135,1.1,1.1,88,0.01,,,0.44,WUHU216HW,2013-03-07 21:05:00,
2013-03-07 13:30:00,42.8,40.0,30.00,SE,135,0.4,0.4,90,0.00,,,0.44,WUHU216HW,2013-03-07 21:30:00,
2013-03-07 13:35:00,42.8,40.0,30.00,SE,135,0.4,0.4,90,0.00,,,0.44,WUHU216HW,2013-03-07 21:35:00,
2013-03-07 14:00:00,43.5,40.1,30.00,SE,135,3.4,3.4,88,0.00,,,0.44,WUHU216HW,2013-03-07 22:00:00,
2013-03-07 14:05:00,43.5,40.1,30.00,SE,135,3.4,3.4,88,0.00,,,0.44,WUHU216HW,2013-03-07 22:05:00,
2013-03-07 14:30:00,44.0,40.4,30.00,SSW,203,1.1,1.1,87,0.00,,,0.44,WUHU216HW,2013-03-07 22:30:00,
2013-03-07 14:35:00,44.0,40.4,30.00,SSW,203,1.1,1.1,87,0.00,,,0.44,WUHU216HW,2013-03-07 22:35:00,
2013-03-07 15:00:00,44.2,40.0,30.01,SSE,158,0.9,0.9,85,0.00,,,0.44,WUHU216HW,2013-03-07 23:00:00,
2013-03-07 15:05:00,44.2,40.0,30.01,SSE,158,0.9,0.9,85,0.00,,,0.44,WUHU216HW,2013-03-07 23:05:00,
2013-03-07 15:30:00,44.6,40.1,30.01,ENE,68,1.1,1.1,84,0.00,,,0.44,WUHU216HW,2013-03-07 23:30:00,
2013-03-07 15:35:00,44.6,40.1,30.01,ENE,68,1.1,1.1,84,0.00,,,0.44,WUHU216HW,2013-03-07 23:35:00,
2013-03-07 16:00:00,44.4,40.5,30.01,South,180,0.4,0.4,86,0.00,,,0.44,WUHU216HW,2013-03-08 00:00:00,
2013-03-07 16:05:00,44.4,40.5,30.01,South,180,0.4,0.4,86,0.00,,,0.44,WUHU216HW,2013-03-08 00:05:00,
2013-03-07 16:30:00,44.6,40.9,30.00,South,180,0.0,0.0,87,0.00,,,0.44,WUHU216HW,2013-03-08 00:30:00,
2013-03-07 16:35:00,44.6,40.9,30.00,South,180,0.0,0.0,87,0.00,,,0.44,WUHU216HW,2013-03-08 00:35:00,
2013-03-07 17:00:00,44.4,41.0,30.01,South,180,0.4,0.4,88,0.00,,,0.44,WUHU216HW,2013-03-08 01:00:00,
2013-03-07 17:05:00,44.4,41.0,30.01,South,180,0.4,0.4,88,0.00,,,0.44,WUHU216HW,2013-03-08 01:05:00,
2013-03-07 17:30:00,44.2,40.8,30.00,South,180,0.0,0.0,88,0.00,,,0.44,WUHU216HW,2013-03-08 01:30:00,
2013-03-07 17:35:00,44.2,40.8,30.00,South,180,0.0,0.0,88,0.00,,,0.44,WUHU216HW,2013-03-08 01:35:00,
2013-03-07 18:00:00,43.5,40.1,30.00,South,180,0.0,0.0,88,0.00,,,0.44,WUHU216HW,2013-03-08 02:00:00,
2013-03-07 18:05:00,43.5,40.1,30.00,South,180,0.0,0.0,88,0.00,,,0.44,WUHU216HW,2013-03-08 02:05:00,
2013-03-07 18:30:00,42.6,39.3,30.01,South,180,0.0,0.0,88,0.00,,,0.44,WUHU216HW,2013-03-08 02:30:00,
2013-03-07 18:35:00,42.6,39.3,30.01,South,180,0.0,0.0,88,0.00,,,0.44,WUHU216HW,2013-03-08 02:35:00,
2013-03-07 19:00:00,41.5,37.9,30.01,South,180,0.0,0.0,87,0.00,,,0.44,WUHU216HW,2013-03-08 03:00:00,
2013-03-07 19:05:00,41.5,37.9,30.01,South,180,0.0,0.0,87,0.00,,,0.44,WUHU216HW,2013-03-08 03:05:00,
2013-03-07 19:30:00,40.6,37.0,30.01,South,180,0.0,0.0,87,0.00,,,0.44,WUHU216HW,2013-03-08 03:30:00,
2013-03-07 19:35:00,40.6,37.0,30.01,South,180,0.0,0.0,87,0.00,,,0.44,WUHU216HW,2013-03-08 03:35:00,
2013-03-07 20:00:00,40.1,36.8,30.01,South,180,0.0,0.0,88,0.00,,,0.44,WUHU216HW,2013-03-08 04:00:00,
2013-03-07 20:05:00,40.1,36.8,30.01,South,180,0.0,0.0,88,0.00,,,0.44,WUHU216HW,2013-03-08 04:05:00,
2013-03-07 20:30:00,39.5,35.9,30.02,South,180,0.0,0.0,87,0.00,,,0.44,WUHU216HW,2013-03-08 04:30:00,
2013-03-07 20:35:00,39.5,35.9,30.02,South,180,0.0,0.0,87,0.00,,,0.44,WUHU216HW,2013-03-08 04:35:00,
2013-03-07 21:00:00,38.1,34.5,30.02,South,180,0.0,0.0,87,0.00,,,0.44,WUHU216HW,2013-03-08 05:00:00,
2013-03-07 21:01:00,38.1,34.5,30.02,South,180,0.0,0.0,87,0.00,,,0.44,WUHU216HW,2013-03-08 05:01:00,
2013-03-07 21:07:00,38.1,34.5,30.02,South,180,0.0,0.0,87,0.00,,,0.44,WUHU216HW,2013-03-08 05:07:00,
2013-03-07 21:30:00,37.2,33.9,30.02,South,180,0.0,0.0,88,0.00,,,0.44,WUHU216HW,2013-03-08 05:30:00,
2013-03-07 21:35:00,37.2,33.9,30.02,South,180,0.0,0.0,88,0.00,,,0.44,WUHU216HW,2013-03-08 05:35:00,
2013-03-07 22:00:00,35.9,32.7,30.02,South,180,0.4,0.4,88,0.00,,,0.44,WUHU216HW,2013-03-08 06:00:00,
2013-03-07 22:05:00,35.9,32.7,30.02,South,180,0.4,0.4,88,0.00,,,0.44,WUHU216HW,2013-03-08 06:05:00,
2013-03-07 22:30:00,35.2,32.0,30.03,South,180,0.0,0.0,88,0.00,,,0.44,WUHU216HW,2013-03-08 06:30:00,
2013-03-07 22:35:00,35.2,32.0,30.03,South,180,0.0,0.0,88,0.00,,,0.44,WUHU216HW,2013-03-08 06:35:00,
2013-03-07 23:00:00,34.5,31.3,30.03,South,180,0.0,0.0,88,0.00,,,0.44,WUHU216HW,2013-03-08 07:00:00,
2013-03-07 23:05:00,34.5,31.3,30.03,South,180,0.0,0.0,88,0.00,,,0.44,WUHU216HW,2013-03-08 07:05:00,
2013-03-07 23:30:00,33.8,30.9,30.03,South,180,0.0,0.0,89,0.00,,,0.44,WUHU216HW,2013-03-08 07:30:00,
2013-03-07 23:35:00,33.8,30.9,30.03,South,180,0.0,0.0,89,0.00,,,0.44,WUHU216HW,2013-03-08 07:35:00,